< < Back
Terminal Aerodrome Forecast


Current Version              Previous Versions:   1  2  3  4  5  6  7  8  9  

Terminal Aerodrome Forecast

395
FTUS42 KCHS 230500
TAFSAV
TAF
KSAV 230540Z 2306/2406 VRB03KT P6SM FEW150
     FM231400 30006KT P6SM FEW060 SCT150
     FM232300 VRB04KT P6SM VCSH BKN060=

Latest METAR

033
SAUS80 KWBC 231100 RRA
MTRSAV
METAR KSAV 231053Z 00000KT 10SM FEW120 SCT250 26/22 A2993 RMK AO2 SLP135
T02560222


USA.gov is the U.S. government's official web portal to all federal, state and local government web resources and services.